Pagrindinis puslapis
METAR-TAF:

METAR-TAF

Oro uostai :

Cruzeiro do Sul, Akrė, Brazilija

platuma: 07-38S, ilguma: 072-40W, Aukštis: 170 m

Dabartinis oras

Ataskaita buvo paskelbta 6 valandos ir 50 minutes, ne 21:00 UTC
Vėjas 11 kt iš Pietvakarių
Temperatūra 28°C
Drėgmė 74%
Slėgis 1008 hPa
Matomumas 10 km arba daugiau
Išsisklaidę debesys ne aukštis 3000 ft

METAR: SBCZ 212100Z 23011KT 9999 SCT030 28/23 Q1008

Laikas: 22:50 (03:50 UTC)


TAF: trūkstamas

Orai ataskaitas ir orų prognozės (METAR, TAF).

turimą stotys yra geltonos ir raudonos taškus žemėlapyje.

Perkelti pele per norėdami pamatyti stoties vardą.

Tada spustelėkite, norėdami matyti oro stebėjimo ir prognozės.

Norėdami pakeisti žemėlapį: spustelėkite ant žalios mygtukų su juodo kryžiaus žemyn,; žalią mygtuką su brūkšneliu, jei norite nutolinti; arba žalių rodyklių gretimoms žemėlapius.


METAR-TAF: